createdAt,value
2018-08-03T00:00:38.486Z,14.73
2018-08-03T00:03:10.685Z,13.47
2018-08-03T00:05:42.465Z,14.33
2018-08-03T00:08:14.593Z,13.27
2018-08-03T00:10:46.485Z,14.80
2018-08-03T00:13:19.069Z,18.33
2018-08-03T00:15:52.005Z,15.13
2018-08-03T00:18:24.397Z,14.10
2018-08-03T00:20:57.502Z,13.07
2018-08-03T00:23:29.689Z,12.00
2018-08-03T00:26:01.755Z,15.73
2018-08-03T00:28:33.930Z,13.10
2018-08-03T00:31:05.911Z,13.13
2018-08-03T00:33:38.705Z,13.90
2018-08-03T00:36:10.526Z,14.97
2018-08-03T00:38:42.693Z,13.90
2018-08-03T00:41:14.715Z,13.47
2018-08-03T00:43:46.678Z,14.03
2018-08-03T00:46:18.632Z,15.40
2018-08-03T00:48:51.283Z,12.23
2018-08-03T00:51:23.287Z,15.33
2018-08-03T00:53:54.907Z,12.97
2018-08-03T00:56:27.055Z,15.43
2018-08-03T00:58:58.980Z,14.57
2018-08-03T01:01:31.447Z,12.70
2018-08-03T01:04:03.491Z,13.87
2018-08-03T01:06:35.517Z,13.33
2018-08-03T01:09:12.599Z,12.83
2018-08-03T01:11:44.379Z,13.20
2018-08-03T01:14:16.897Z,13.40
2018-08-03T01:16:49.609Z,13.70
2018-08-03T01:19:22.312Z,14.53
2018-08-03T01:21:54.113Z,13.30
2018-08-03T01:24:25.265Z,14.87
2018-08-03T01:26:57.094Z,12.77
2018-08-03T01:29:29.936Z,14.47
2018-08-03T01:32:01.709Z,17.00
2018-08-03T01:34:33.858Z,13.07
2018-08-03T01:37:06.201Z,12.60
2018-08-03T01:39:40.230Z,12.73
2018-08-03T01:42:11.863Z,13.40
2018-08-03T01:44:43.600Z,12.13
2018-08-03T01:47:16.824Z,12.93
2018-08-03T01:49:48.969Z,16.40
2018-08-03T01:52:21.403Z,15.77
2018-08-03T01:54:53.190Z,13.47
2018-08-03T01:57:25.467Z,16.37
2018-08-03T01:59:57.661Z,12.83
2018-08-03T02:02:29.412Z,12.73
2018-08-03T02:05:01.831Z,13.97
2018-08-03T02:07:34.261Z,11.93
2018-08-03T02:10:06.914Z,16.73
2018-08-03T02:12:38.816Z,14.27
2018-08-03T02:15:10.910Z,15.77
2018-08-03T02:17:42.868Z,18.20
2018-08-03T02:20:15.579Z,13.63
2018-08-03T02:22:46.860Z,13.10
2018-08-03T02:25:19.134Z,18.23
2018-08-03T02:27:51.224Z,16.10
2018-08-03T02:30:23.274Z,14.30
2018-08-03T02:32:55.766Z,20.23
2018-08-03T02:35:27.578Z,13.90
2018-08-03T02:37:59.356Z,19.43
2018-08-03T02:40:31.439Z,13.33
2018-08-03T02:43:03.813Z,15.50
2018-08-03T02:45:36.267Z,15.07
2018-08-03T02:48:08.503Z,16.50
2018-08-03T02:50:40.559Z,15.83
2018-08-03T02:53:12.350Z,15.07
2018-08-03T02:55:43.928Z,14.37
2018-08-03T02:58:16.597Z,14.80
2018-08-03T03:00:48.425Z,17.50
2018-08-03T03:03:20.321Z,14.50
2018-08-03T03:05:52.411Z,12.17
2018-08-03T03:08:24.294Z,13.60
2018-08-03T03:10:55.414Z,14.27
2018-08-03T03:13:27.332Z,14.97
2018-08-03T03:15:59.192Z,14.77
2018-08-03T03:18:31.498Z,13.73
2018-08-03T03:21:02.649Z,14.97
2018-08-03T03:23:34.385Z,15.23
2018-08-03T03:26:06.498Z,18.17
2018-08-03T03:28:39.377Z,15.13
2018-08-03T03:31:10.838Z,13.07
2018-08-03T03:33:42.571Z,14.93
2018-08-03T03:36:14.420Z,12.50
2018-08-03T03:38:46.440Z,15.53
2018-08-03T03:41:18.594Z,14.67
2018-08-03T03:43:50.644Z,15.67
2018-08-03T03:46:22.254Z,18.33
2018-08-03T03:48:54.095Z,14.83
2018-08-03T03:51:26.911Z,16.20
2018-08-03T03:53:58.265Z,12.90
2018-08-03T03:56:30.914Z,16.03
2018-08-03T03:59:02.945Z,13.50
2018-08-03T04:01:34.684Z,13.50
2018-08-03T04:04:06.960Z,13.33
2018-08-03T04:06:39.812Z,13.13
2018-08-03T04:09:13.592Z,12.93
2018-08-03T04:11:45.209Z,12.70
2018-08-03T04:14:18.212Z,16.50
2018-08-03T04:16:50.370Z,14.13
2018-08-03T04:19:22.283Z,14.47
2018-08-03T04:21:54.393Z,17.10
2018-08-03T04:24:26.357Z,15.43
2018-08-03T04:26:58.274Z,15.43
2018-08-03T04:29:30.490Z,12.70
2018-08-03T04:32:02.555Z,12.10
2018-08-03T04:34:34.816Z,13.27
2018-08-03T04:37:06.695Z,14.23
2018-08-03T04:39:38.864Z,12.07
2018-08-03T04:42:10.998Z,15.23
2018-08-03T04:44:42.929Z,13.20
2018-08-03T04:47:15.032Z,14.93
2018-08-03T04:49:48.418Z,12.87
2018-08-03T04:52:20.390Z,14.17
2018-08-03T04:54:51.784Z,17.03
2018-08-03T04:57:23.718Z,15.60
2018-08-03T04:59:55.595Z,13.33
2018-08-03T05:02:27.558Z,12.80
2018-08-03T05:04:59.669Z,13.40
2018-08-03T05:07:31.821Z,17.30
2018-08-03T05:10:04.169Z,21.13
2018-08-03T05:12:35.935Z,24.27
2018-08-03T05:15:08.696Z,18.80
2018-08-03T05:17:40.598Z,24.17
2018-08-03T05:20:12.532Z,34.30
2018-08-03T05:22:44.818Z,31.23
2018-08-03T05:25:16.992Z,27.13
2018-08-03T05:27:48.837Z,36.37
2018-08-03T05:30:20.993Z,31.97
2018-08-03T05:32:53.073Z,38.87
2018-08-03T05:35:25.430Z,32.53
2018-08-03T05:37:57.478Z,31.07
2018-08-03T05:40:28.954Z,26.97
2018-08-03T05:43:00.970Z,30.17
2018-08-03T05:45:33.188Z,23.67
2018-08-03T05:48:05.007Z,26.10
2018-08-03T05:50:38.497Z,24.63
2018-08-03T05:53:10.935Z,25.03
2018-08-03T05:55:42.929Z,21.30
2018-08-03T05:58:15.305Z,20.87
2018-08-03T06:00:47.293Z,21.17
2018-08-03T06:03:19.712Z,18.73
2018-08-03T06:58:20.288Z,13.60
2018-08-03T07:00:52.445Z,14.30
2018-08-03T07:03:24.754Z,15.03
2018-08-03T07:05:56.811Z,13.97
2018-08-03T07:08:29.116Z,14.20
2018-08-03T07:11:01.672Z,17.30
2018-08-03T07:13:33.548Z,13.53
2018-08-03T07:16:05.614Z,15.60
2018-08-03T07:18:37.792Z,14.63
2018-08-03T07:21:09.892Z,14.37
2018-08-03T07:23:41.931Z,14.43
2018-08-03T07:26:14.109Z,14.20
2018-08-03T07:28:46.340Z,13.30
2018-08-03T07:31:18.556Z,13.97
2018-08-03T07:33:50.929Z,10.40
2018-08-03T07:36:22.970Z,14.60
2018-08-03T07:38:56.362Z,10.07
2018-08-03T07:41:28.408Z,10.43
2018-08-03T07:44:00.521Z,9.60
2018-08-03T07:46:32.715Z,12.17
2018-08-03T07:49:05.345Z,14.17
2018-08-03T07:51:38.240Z,9.13
2018-08-03T07:54:10.733Z,11.00
2018-08-03T07:56:43.544Z,15.13
2018-08-03T07:59:15.943Z,12.23
2018-08-03T08:01:47.252Z,8.77
2018-08-03T08:04:19.094Z,18.23
2018-08-03T08:06:51.135Z,15.53
2018-08-03T08:09:23.484Z,14.77
2018-08-03T08:11:55.796Z,15.20
2018-08-03T08:14:28.138Z,15.17
2018-08-03T08:17:00.371Z,13.13
2018-08-03T08:19:32.258Z,17.57
2018-08-03T08:22:04.633Z,13.13
2018-08-03T08:24:36.874Z,12.33
2018-08-03T08:27:09.001Z,13.53
2018-08-03T08:29:40.923Z,12.53
2018-08-03T08:32:12.997Z,14.63
2018-08-03T08:34:44.860Z,11.30
2018-08-03T08:37:16.939Z,10.07
2018-08-03T08:39:49.203Z,12.53
2018-08-03T08:42:22.065Z,11.57
2018-08-03T08:44:54.728Z,11.07
2018-08-03T08:47:27.051Z,11.67
2018-08-03T08:49:59.065Z,13.23
2018-08-03T08:52:31.207Z,10.53
2018-08-03T08:55:03.442Z,9.63
2018-08-03T08:57:36.516Z,10.00
2018-08-03T09:00:08.516Z,9.30
2018-08-03T09:02:41.115Z,10.30
2018-08-03T09:05:13.376Z,9.33
2018-08-03T09:07:45.435Z,10.83
2018-08-03T09:10:17.558Z,11.20
2018-08-03T09:12:49.694Z,12.67
2018-08-03T09:15:21.850Z,12.13
2018-08-03T09:17:53.703Z,9.27
2018-08-03T09:20:26.836Z,10.80
2018-08-03T09:22:59.121Z,11.93
2018-08-03T09:25:31.026Z,15.10
2018-08-03T09:28:03.222Z,8.70
2018-08-03T09:30:35.318Z,9.77
2018-08-03T09:33:07.434Z,6.80
2018-08-03T09:35:39.877Z,8.33
2018-08-03T09:38:12.174Z,11.27
2018-08-03T09:40:44.699Z,11.13
2018-08-03T09:43:16.788Z,19.33
2018-08-03T09:45:49.236Z,13.97
2018-08-03T09:48:21.865Z,14.97
2018-08-03T09:50:55.854Z,13.30
2018-08-03T09:53:27.910Z,14.10
2018-08-03T09:56:00.866Z,11.90
2018-08-03T09:58:33.159Z,16.13
2018-08-03T10:01:11.761Z,21.60
2018-08-03T10:03:44.203Z,11.70
2018-08-03T10:06:15.997Z,18.70
2018-08-03T10:08:48.122Z,9.17
2018-08-03T10:11:20.223Z,13.70
2018-08-03T10:13:52.671Z,11.27
2018-08-03T10:16:24.784Z,14.57
2018-08-03T10:18:56.764Z,17.40
2018-08-03T10:21:30.069Z,10.83
2018-08-03T10:24:02.078Z,14.37
2018-08-03T10:26:34.402Z,6.57
2018-08-03T10:29:06.329Z,7.70
2018-08-03T10:31:38.573Z,8.30
2018-08-03T10:34:10.568Z,8.90
2018-08-03T10:36:42.455Z,7.33
2018-08-03T10:39:14.723Z,9.57
2018-08-03T10:44:24.854Z,12.80
2018-08-03T10:46:57.227Z,8.17
2018-08-03T10:49:29.599Z,14.37
2018-08-03T10:52:02.003Z,9.57
2018-08-03T10:54:34.272Z,17.47
2018-08-03T10:57:06.626Z,11.80
2018-08-03T10:59:39.053Z,9.70
2018-08-03T11:02:11.354Z,10.10
2018-08-03T11:04:43.714Z,13.80
2018-08-03T11:07:15.649Z,10.33
2018-08-03T11:09:47.566Z,10.17
2018-08-03T11:12:19.663Z,10.00
2018-08-03T11:14:51.577Z,7.57
2018-08-03T11:17:23.907Z,9.07
2018-08-03T11:19:55.833Z,6.43
2018-08-03T11:22:27.902Z,10.90
2018-08-03T11:25:00.068Z,14.13
2018-08-03T11:27:32.347Z,8.73
2018-08-03T11:30:04.489Z,9.53
2018-08-03T11:32:38.400Z,11.93
2018-08-03T11:35:11.191Z,10.60
2018-08-03T11:37:43.685Z,8.10
2018-08-03T11:40:15.717Z,9.43
2018-08-03T11:42:47.563Z,12.67
2018-08-03T11:45:19.539Z,7.37
2018-08-03T11:47:51.665Z,10.47
2018-08-03T11:50:23.583Z,11.87
2018-08-03T11:52:54.995Z,12.80
2018-08-03T11:55:27.069Z,10.23
2018-08-03T11:57:59.847Z,8.67
2018-08-03T12:00:31.873Z,7.33
2018-08-03T12:03:04.435Z,10.77
2018-08-03T12:05:36.362Z,8.30
2018-08-03T12:08:07.791Z,10.63
2018-08-03T12:10:40.589Z,16.17
2018-08-03T12:13:12.668Z,8.27
2018-08-03T12:15:44.590Z,19.37
2018-08-03T12:18:16.723Z,28.37
2018-08-03T12:20:48.937Z,13.93
2018-08-03T12:23:21.224Z,15.50
2018-08-03T12:25:53.086Z,10.77
2018-08-03T12:28:25.052Z,7.63
2018-08-03T12:30:57.265Z,7.43
2018-08-03T12:33:29.074Z,15.73
2018-08-03T12:36:01.015Z,17.43
2018-08-03T12:38:32.965Z,7.53
2018-08-03T12:41:04.827Z,18.47
2018-08-03T12:43:37.170Z,27.80
2018-08-03T12:46:09.449Z,21.33
2018-08-03T12:48:42.855Z,15.63
2018-08-03T12:51:14.217Z,8.80
2018-08-03T12:53:46.107Z,7.57
2018-08-03T12:56:17.949Z,10.00
2018-08-03T12:58:49.954Z,9.80
2018-08-03T13:01:22.192Z,11.17
2018-08-03T13:03:54.495Z,11.60
2018-08-03T13:06:26.664Z,7.30
2018-08-03T13:08:59.589Z,9.03
2018-08-03T13:11:31.536Z,10.30
2018-08-03T13:14:04.492Z,11.30
2018-08-03T13:16:36.591Z,9.03
2018-08-03T13:19:10.278Z,9.43
2018-08-03T13:21:43.658Z,19.70
2018-08-03T13:24:16.803Z,9.63
2018-08-03T13:26:49.247Z,9.63
2018-08-03T13:29:21.243Z,15.27
2018-08-03T13:31:53.447Z,9.13
2018-08-03T13:34:25.827Z,7.37
2018-08-03T13:36:58.099Z,10.30
2018-08-03T13:39:29.817Z,8.10
2018-08-03T13:42:01.863Z,9.90
2018-08-03T13:44:33.943Z,9.90
2018-08-03T13:47:05.827Z,13.87
2018-08-03T13:49:37.899Z,14.90
2018-08-03T13:52:10.114Z,9.33
2018-08-03T13:54:41.980Z,14.07
2018-08-03T13:57:14.103Z,16.57
2018-08-03T13:59:46.219Z,13.23
2018-08-03T14:02:26.669Z,9.57
2018-08-03T14:04:58.881Z,17.03
2018-08-03T14:07:30.942Z,15.23
2018-08-03T14:10:02.741Z,8.67
2018-08-03T14:12:34.893Z,13.73
2018-08-03T14:15:07.738Z,15.70
2018-08-03T14:17:39.619Z,13.13
2018-08-03T14:20:11.562Z,12.30
2018-08-03T14:22:43.591Z,14.97
2018-08-03T14:25:15.557Z,9.87
2018-08-03T14:27:47.379Z,21.47
2018-08-03T14:30:19.951Z,11.83
2018-08-03T14:32:51.836Z,8.67
2018-08-03T14:35:24.504Z,10.60
2018-08-03T14:37:56.634Z,10.77
2018-08-03T14:40:28.890Z,14.33
2018-08-03T14:43:01.600Z,12.90
2018-08-03T14:45:34.449Z,10.37
2018-08-03T14:48:06.797Z,10.17
2018-08-03T14:50:38.617Z,10.63
2018-08-03T14:53:10.817Z,9.67
2018-08-03T14:55:42.599Z,13.20
2018-08-03T14:58:14.447Z,11.43
2018-08-03T15:00:46.597Z,9.63
2018-08-03T15:03:18.460Z,8.57
2018-08-03T15:05:51.193Z,10.07
2018-08-03T15:08:23.090Z,12.03
2018-08-03T15:10:55.309Z,9.07
2018-08-03T15:13:27.301Z,9.33
2018-08-03T15:15:59.335Z,8.63
2018-08-03T15:18:31.329Z,9.20
2018-08-03T15:21:03.764Z,8.27
2018-08-03T15:23:35.737Z,12.00
2018-08-03T15:26:08.122Z,11.10
2018-08-03T15:28:40.034Z,8.67
2018-08-03T15:31:13.277Z,11.87
2018-08-03T15:33:45.115Z,10.23
2018-08-03T15:36:17.916Z,7.73
2018-08-03T15:38:50.089Z,9.87
2018-08-03T15:41:22.147Z,9.57
2018-08-03T15:43:55.309Z,10.63
2018-08-03T15:46:27.233Z,8.90
2018-08-03T15:49:00.320Z,8.30
2018-08-03T15:51:32.289Z,9.30
2018-08-03T15:54:04.319Z,8.83
2018-08-03T15:56:36.255Z,9.87
2018-08-03T15:59:08.014Z,9.30
2018-08-03T16:01:40.218Z,9.40
2018-08-03T16:04:12.073Z,9.00
2018-08-03T16:06:44.569Z,12.23
2018-08-03T16:09:16.600Z,8.87
2018-08-03T16:11:48.441Z,12.60
2018-08-03T16:14:20.768Z,9.73
2018-08-03T16:16:52.662Z,9.43
2018-08-03T16:19:24.780Z,9.13
2018-08-03T16:21:57.297Z,9.90
2018-08-03T16:24:29.435Z,10.37
2018-08-03T16:27:01.727Z,10.67
2018-08-03T16:29:34.540Z,9.00
2018-08-03T16:32:07.092Z,10.10
2018-08-03T16:34:39.329Z,17.40
2018-08-03T16:37:11.430Z,16.03
2018-08-03T16:39:43.896Z,14.07
2018-08-03T16:42:15.988Z,9.17
2018-08-03T16:44:47.708Z,12.33
2018-08-03T16:47:20.071Z,9.87
2018-08-03T16:49:52.546Z,10.13
2018-08-03T16:52:24.779Z,12.40
2018-08-03T16:54:58.199Z,10.03
2018-08-03T16:57:30.614Z,10.53
2018-08-03T17:00:02.800Z,9.77
2018-08-03T17:02:34.938Z,13.03
2018-08-03T17:05:07.045Z,11.03
2018-08-03T17:07:38.980Z,11.13
2018-08-03T17:10:12.153Z,10.27
2018-08-03T17:12:44.374Z,11.77
2018-08-03T17:15:16.339Z,11.70
2018-08-03T17:17:48.612Z,10.70
2018-08-03T17:20:20.990Z,10.33
2018-08-03T17:22:53.039Z,11.47
2018-08-03T17:25:25.212Z,15.93
2018-08-03T17:27:57.069Z,12.23
2018-08-03T17:30:29.024Z,9.37
2018-08-03T17:33:01.441Z,10.37
2018-08-03T17:35:33.633Z,9.93
2018-08-03T17:38:06.239Z,12.37
2018-08-03T17:40:38.242Z,13.17
2018-08-03T17:43:10.556Z,11.30
2018-08-03T17:45:42.661Z,12.17
2018-08-03T17:48:15.042Z,13.73
2018-08-03T17:50:46.928Z,13.47
2018-08-03T17:53:20.035Z,10.70
2018-08-03T17:55:52.145Z,12.03
2018-08-03T17:58:24.462Z,11.53
2018-08-03T18:00:56.199Z,11.50
2018-08-03T18:03:27.585Z,12.23
2018-08-03T18:05:59.734Z,11.60
2018-08-03T18:08:32.011Z,13.60
2018-08-03T18:11:04.175Z,14.80
2018-08-03T18:13:41.321Z,22.43
2018-08-03T18:16:12.448Z,12.70
2018-08-03T18:18:44.079Z,14.60
2018-08-03T18:21:14.733Z,15.80
2018-08-03T18:23:46.369Z,14.90
2018-08-03T18:26:17.521Z,19.70
2018-08-03T18:28:48.581Z,40.23
2018-08-03T18:31:19.880Z,54.53
2018-08-03T18:33:51.552Z,22.77
2018-08-03T18:36:22.638Z,15.77
2018-08-03T18:38:53.790Z,14.67
2018-08-03T18:41:25.071Z,12.93
2018-08-03T18:43:56.625Z,18.30
2018-08-03T18:46:28.041Z,22.23
2018-08-03T18:48:59.186Z,17.00
2018-08-03T18:51:31.197Z,12.57
2018-08-03T18:54:02.678Z,15.10
2018-08-03T18:56:33.977Z,12.63
2018-08-03T18:59:05.319Z,21.23
2018-08-03T19:01:39.880Z,12.90
2018-08-03T19:04:12.228Z,14.50
2018-08-03T19:06:43.360Z,15.90
2018-08-03T19:09:14.701Z,12.23
2018-08-03T19:11:45.909Z,13.40
2018-08-03T19:14:22.646Z,11.73
2018-08-03T19:16:53.450Z,12.73
2018-08-03T19:19:24.660Z,12.20
2018-08-03T19:21:55.959Z,12.30
2018-08-03T19:24:27.007Z,12.43
2018-08-03T19:26:57.798Z,13.70
2018-08-03T19:29:28.947Z,13.07
2018-08-03T19:32:00.458Z,11.87
2018-08-03T19:34:31.785Z,17.00
2018-08-03T19:37:02.861Z,13.53
2018-08-03T19:39:33.952Z,13.50
2018-08-03T19:42:05.147Z,15.70
2018-08-03T19:44:35.660Z,14.37
2018-08-03T19:47:06.574Z,13.60
2018-08-03T19:49:37.645Z,11.80
2018-08-03T19:52:08.368Z,12.37
2018-08-03T19:54:39.294Z,14.37
2018-08-03T19:57:10.273Z,18.77
2018-08-03T19:59:41.457Z,13.73
2018-08-03T20:02:12.380Z,13.43
2018-08-03T20:04:43.593Z,14.83
2018-08-03T20:07:14.141Z,15.13
2018-08-03T20:09:45.249Z,13.13
2018-08-03T20:12:17.247Z,11.87
2018-08-03T20:14:49.398Z,13.00
2018-08-03T20:17:21.182Z,12.50
2018-08-03T20:19:52.360Z,11.97
2018-08-03T20:22:23.398Z,11.70
2018-08-03T20:24:54.431Z,12.33
2018-08-03T20:27:25.625Z,17.17
2018-08-03T20:29:56.516Z,14.43
2018-08-03T20:32:27.065Z,12.60
2018-08-03T20:34:57.549Z,13.87
2018-08-03T20:37:28.568Z,13.10
2018-08-03T20:39:59.675Z,16.50
2018-08-03T20:42:30.649Z,15.70
2018-08-03T20:45:02.577Z,13.50
2018-08-03T20:47:33.018Z,14.77
2018-08-03T20:50:03.388Z,21.60
2018-08-03T20:52:34.324Z,14.20
2018-08-03T20:55:05.639Z,14.03
2018-08-03T20:57:37.753Z,15.23
2018-08-03T21:00:08.990Z,13.23
2018-08-03T21:02:40.192Z,16.37
2018-08-03T21:05:11.308Z,15.73
2018-08-03T21:07:43.369Z,13.17
2018-08-03T21:10:14.297Z,12.93
2018-08-03T21:12:46.083Z,15.77
2018-08-03T21:15:18.024Z,14.93
2018-08-03T21:17:49.609Z,13.17
2018-08-03T21:20:20.762Z,14.87
2018-08-03T21:22:53.728Z,13.97
2018-08-03T21:25:24.896Z,15.07
2018-08-03T21:27:57.316Z,15.17
2018-08-03T21:30:29.235Z,13.47
2018-08-03T21:33:00.453Z,14.23
2018-08-03T21:35:31.332Z,19.23
2018-08-03T21:38:02.411Z,13.60
2018-08-03T21:40:34.426Z,14.03
2018-08-03T21:43:06.375Z,12.83
2018-08-03T21:45:37.383Z,13.17
2018-08-03T21:48:08.622Z,13.33
2018-08-03T21:50:39.654Z,12.50
2018-08-03T21:53:10.766Z,13.80
2018-08-03T21:55:41.724Z,15.27
2018-08-03T21:58:12.720Z,15.37
2018-08-03T22:00:43.641Z,13.10
2018-08-03T22:03:14.421Z,17.03
2018-08-03T22:05:45.494Z,14.03
2018-08-03T22:08:16.553Z,13.03
2018-08-03T22:10:47.063Z,15.07
2018-08-03T22:13:18.042Z,13.10
2018-08-03T22:15:50.923Z,11.40
2018-08-03T22:18:21.712Z,13.80
2018-08-03T22:20:52.614Z,16.50
2018-08-03T22:23:23.713Z,12.73
2018-08-03T22:25:54.759Z,12.97
2018-08-03T22:28:25.845Z,12.63
2018-08-03T22:30:58.627Z,14.70
2018-08-03T22:33:30.655Z,13.67
2018-08-03T22:36:01.746Z,13.43
2018-08-03T22:38:32.913Z,13.37
2018-08-03T22:41:03.946Z,11.57
2018-08-03T22:43:34.871Z,13.87
2018-08-03T22:46:06.030Z,14.67
2018-08-03T22:48:37.198Z,15.40
2018-08-03T22:51:07.771Z,14.27
2018-08-03T22:53:38.914Z,13.90
2018-08-03T22:56:10.088Z,12.97
2018-08-03T22:58:41.415Z,17.37
2018-08-03T23:01:12.352Z,11.90
2018-08-03T23:03:43.382Z,12.30
2018-08-03T23:06:14.443Z,17.90
2018-08-03T23:08:45.625Z,14.87
2018-08-03T23:11:16.881Z,13.97
2018-08-03T23:13:48.051Z,15.57
2018-08-03T23:16:19.388Z,15.77
2018-08-03T23:18:49.843Z,14.27
2018-08-03T23:21:20.853Z,15.20
2018-08-03T23:23:52.089Z,13.80
2018-08-03T23:26:24.117Z,16.23
2018-08-03T23:28:55.157Z,14.93
2018-08-03T23:31:26.180Z,15.17
2018-08-03T23:33:57.199Z,16.77
2018-08-03T23:36:28.095Z,18.03
2018-08-03T23:38:59.101Z,18.17
2018-08-03T23:41:29.974Z,16.47
2018-08-03T23:44:01.157Z,18.53
2018-08-03T23:46:32.041Z,17.70
2018-08-03T23:49:03.014Z,19.77
2018-08-03T23:51:34.151Z,17.33
2018-08-03T23:54:04.695Z,17.83
2018-08-03T23:56:35.664Z,15.27
